Belleville, IL

2:26 PM CDT on April 25, 2015 (GMT -0500)
Lake Christine | | Change Station
CLOSE
Current Station
Personal Weather Station
Location: Belleville, IL
Elevation: 538 ft
Nearby Weather Stations
Active Advisory: Tornado Watch Active Notice: Public Information Statement

Elev 538 ft 38.54 °N, 89.96 °W | Updated 13 minutes ago

Rain
Rain
65.1 °F
Feels Like 65.1 °F
N
1.1
Wind Variable Wind from NNE

Today
High -- | Low -- °F
--% Chance of Precip.
Yesterday
High -- | Low -- °F
Precip. -- in
6:10 AM 7:45 PM
Waxing Crescent, 48% visible
Pressure 29.49 in
Visibility 5.0 miles
Clouds Overcast 6000 ft
Dew Point 61 °F
Humidity 87%
Rainfall 0.08 in
Snow Depth Not available.
UV 3 out of 12
Pollen 10.20 out of 12
Air Quality Not available.
Flu Activity Regional
METAR KBLV 251858Z AUTO 20002KT 5SM RA BR OVC060 18/18 A2948 RMK AO2 VIS 2 RWY32R LTG DSNT S DZB23E31RAB31 CIG 050 RWY32R SLP984 P0005 T01780176

More Conditions Fewer Conditions

Pressure 29.49 in
Visibility 5.0 miles
Clouds Overcast 6000 ft
Dew Point 61 °F
Humidity 87%
Rainfall 0.08 in
Snow Depth Not available.
UV 3 out of 12
Pollen 10.20 out of 12
Air Quality Not available.
Flu Activity Regional
METAR KBLV 251858Z AUTO 20002KT 5SM RA BR OVC060 18/18 A2948 RMK AO2 VIS 2 RWY32R LTG DSNT S DZB23E31RAB31 CIG 050 RWY32R SLP984 P0005 T01780176

More Conditions Fewer Conditions

10-Day Weather Forecast

Almanac

Astronomy

Apr. 25, 2015 Rise Set
Actual Time
Civil Twilight
Nautical Twilight
Astronomical Twilight
Moon
Length of Visible Light
Length of Day
Tomorrow will be .
, % of the Moon is Illuminated

Today's Extremes

State Highs State Lows

Community

WunderPhotos

Upload Photos

1,816,781 photos uploaded!

WunderBlogs® & News

Nearby

Air Quality

  Air Quality AQ Index Pollutant
Not available.

Snow Depth

Station Depth Elevation

Earthquake Activity

City Distance Mag. Time & Date
Minimum magnitude displayed is 2.5.

Coastal Water Temperatures

Place Temperature

Stations

Nearby Weather Stations

Station Location Temp. Windchill Dew Point Humidity Wind Precip. Elev Updated Type
                   
Tornado Watch
Statement as of 2:24 PM CDT on April 25, 2015

Tornado Watch 112 remains in effect until 800 PM CDT for the
following locations


IL
. Illinois counties included are

Alexander Bond Calhoun
Clay Clinton Edwards
Fayette Franklin Gallatin
Greene Hamilton Hardin
Jackson Jefferson Jersey
Johnson Lawrence Macoupin
Madison Marion Massac
Monroe Montgomery Perry
Pope Pulaski Randolph
Richland St. Clair Saline
Union Wabash Washington
Wayne white Williamson